Aviation Digital Data Service (ADDS)

Output produced by METARs form (0215 UTC 19 February 2019)
found at http://www.aviationweather.gov/metar/data/
 
KGXY 190156Z AUTO 10013KT 10SM OVC041 M09/M12 A3007 RMK AO2 SLP265 T10891117 FZRANO